createdAt,value
2018-09-20T00:00:28.343Z,19.50
2018-09-20T00:02:59.520Z,19.40
2018-09-20T00:05:31.748Z,19.40
2018-09-20T00:08:02.422Z,19.30
2018-09-20T00:10:34.652Z,19.30
2018-09-20T00:13:05.324Z,19.30
2018-09-20T00:15:37.037Z,19.30
2018-09-20T00:18:08.106Z,19.30
2018-09-20T00:20:38.681Z,19.30
2018-09-20T00:23:09.737Z,19.20
2018-09-20T00:25:42.748Z,19.20
2018-09-20T00:28:14.217Z,19.20
2018-09-20T00:30:45.460Z,19.20
2018-09-20T00:33:16.665Z,19.20
2018-09-20T00:35:47.743Z,19.20
2018-09-20T00:38:18.869Z,19.10
2018-09-20T00:40:49.998Z,19.10
2018-09-20T00:43:21.243Z,19.10
2018-09-20T00:45:52.750Z,19.00
2018-09-20T00:48:24.955Z,19.00
2018-09-20T00:50:57.393Z,19.00
2018-09-20T00:53:28.299Z,18.90
2018-09-20T00:55:59.746Z,18.90
2018-09-20T00:58:30.695Z,18.90
2018-09-20T01:01:01.181Z,18.80
2018-09-20T01:03:32.255Z,18.80
2018-09-20T01:06:02.899Z,18.70
2018-09-20T01:08:33.462Z,18.70
2018-09-20T01:11:04.542Z,18.70
2018-09-20T01:13:35.182Z,18.70
2018-09-20T01:16:05.946Z,18.70
2018-09-20T01:18:37.776Z,18.70
2018-09-20T01:21:09.220Z,18.70
2018-09-20T01:23:41.480Z,18.60
2018-09-20T01:26:12.306Z,18.60
2018-09-20T01:28:42.783Z,18.60
2018-09-20T01:31:13.027Z,18.60
2018-09-20T01:33:43.775Z,18.60
2018-09-20T01:36:15.041Z,18.60
2018-09-20T01:38:45.982Z,18.60
2018-09-20T01:41:17.063Z,18.50
2018-09-20T01:43:47.270Z,18.50
2018-09-20T01:46:17.377Z,18.50
2018-09-20T01:48:47.393Z,18.50
2018-09-20T01:51:17.422Z,18.50
2018-09-20T01:53:47.523Z,18.40
2018-09-20T01:56:17.618Z,18.40
2018-09-20T01:58:47.890Z,18.50
2018-09-20T02:01:17.746Z,18.40
2018-09-20T02:03:47.681Z,18.40
2018-09-20T02:06:17.825Z,18.40
2018-09-20T02:08:47.949Z,18.30
2018-09-20T02:11:18.036Z,18.30
2018-09-20T02:13:48.405Z,18.30
2018-09-20T02:16:18.695Z,18.30
2018-09-20T02:18:48.813Z,18.30
2018-09-20T02:21:19.075Z,18.30
2018-09-20T02:23:49.706Z,18.20
2018-09-20T02:26:20.271Z,18.20
2018-09-20T02:28:50.338Z,18.20
2018-09-20T02:31:20.730Z,18.10
2018-09-20T02:33:50.682Z,18.10
2018-09-20T02:36:20.580Z,18.10
2018-09-20T02:38:50.812Z,18.10
2018-09-20T02:41:21.114Z,18.00
2018-09-20T02:43:51.207Z,18.00
2018-09-20T02:46:21.330Z,18.00
2018-09-20T02:48:51.260Z,18.00
2018-09-20T02:51:21.163Z,18.00
2018-09-20T02:53:50.986Z,17.90
2018-09-20T02:56:20.915Z,17.90
2018-09-20T02:58:51.243Z,17.90
2018-09-20T03:01:22.008Z,17.90
2018-09-20T03:03:52.506Z,17.90
2018-09-20T03:06:24.273Z,17.80
2018-09-20T03:08:55.944Z,17.80
2018-09-20T03:11:27.305Z,17.80
2018-09-20T03:13:57.187Z,17.80
2018-09-20T03:16:27.512Z,17.80
2018-09-20T03:18:58.105Z,17.60
2018-09-20T03:21:29.186Z,17.70
2018-09-20T03:24:00.379Z,17.70
2018-09-20T03:26:30.671Z,17.70
2018-09-20T03:29:01.677Z,17.70
2018-09-20T03:31:32.482Z,17.70
2018-09-20T03:34:03.633Z,17.70
2018-09-20T03:36:33.840Z,17.70
2018-09-20T03:39:04.222Z,17.70
2018-09-20T03:41:34.316Z,17.70
2018-09-20T03:44:05.311Z,17.60
2018-09-20T03:46:36.427Z,17.60
2018-09-20T03:49:08.161Z,17.60
2018-09-20T03:51:38.977Z,17.60
2018-09-20T03:54:09.682Z,17.60
2018-09-20T03:56:40.642Z,17.60
2018-09-20T03:59:12.418Z,17.60
2018-09-20T04:01:42.450Z,17.50
2018-09-20T04:04:14.222Z,17.50
2018-09-20T04:06:44.346Z,17.50
2018-09-20T04:09:15.809Z,17.50
2018-09-20T04:11:47.494Z,17.50
2018-09-20T04:14:18.467Z,17.50
2018-09-20T04:16:48.721Z,17.50
2018-09-20T04:19:19.304Z,17.50
2018-09-20T04:21:51.067Z,17.40
2018-09-20T04:24:22.004Z,17.40
2018-09-20T04:26:52.867Z,17.40
2018-09-20T04:29:24.217Z,17.40
2018-09-20T04:31:55.309Z,17.40
2018-09-20T04:34:26.550Z,17.30
2018-09-20T04:36:57.448Z,17.30
2018-09-20T04:39:28.019Z,17.30
2018-09-20T04:41:59.477Z,17.30
2018-09-20T04:44:29.638Z,17.30
2018-09-20T04:46:59.595Z,17.30
2018-09-20T04:49:30.747Z,17.20
2018-09-20T04:52:01.587Z,17.20
2018-09-20T04:54:32.554Z,17.30
2018-09-20T04:57:07.183Z,17.30
2018-09-20T04:59:38.583Z,17.30
2018-09-20T05:02:10.103Z,17.40
2018-09-20T05:04:40.696Z,17.40
2018-09-20T05:07:11.099Z,17.50
2018-09-20T05:09:42.306Z,17.50
2018-09-20T05:12:13.209Z,17.50
2018-09-20T05:14:43.819Z,17.50
2018-09-20T05:17:14.553Z,17.50
2018-09-20T05:19:46.003Z,17.50
2018-09-20T05:22:17.946Z,17.60
2018-09-20T05:24:49.787Z,17.70
2018-09-20T05:27:20.564Z,17.70
2018-09-20T05:29:52.075Z,17.80
2018-09-20T05:32:22.771Z,17.80
2018-09-20T05:34:53.802Z,17.80
2018-09-20T05:37:24.039Z,17.90
2018-09-20T05:39:55.792Z,17.90
2018-09-20T05:42:26.305Z,18.00
2018-09-20T05:44:57.910Z,18.10
2018-09-20T05:47:28.360Z,18.20
2018-09-20T05:49:59.187Z,18.30
2018-09-20T05:52:30.950Z,18.40
2018-09-20T05:55:02.139Z,18.50
2018-09-20T05:57:33.226Z,18.60
2018-09-20T06:00:04.768Z,18.80
2018-09-20T06:02:35.414Z,18.80
2018-09-20T06:05:06.444Z,19.00
2018-09-20T06:07:36.855Z,19.00
2018-09-20T06:10:07.121Z,19.10
2018-09-20T06:12:37.992Z,19.10
2018-09-20T06:15:09.535Z,19.20
2018-09-20T06:17:39.663Z,19.40
2018-09-20T06:20:10.387Z,19.50
2018-09-20T06:22:41.109Z,19.70
2018-09-20T06:25:12.613Z,19.90
2018-09-20T06:27:44.236Z,20.20
2018-09-20T06:30:16.817Z,20.40
2018-09-20T06:32:47.437Z,21.00
2018-09-20T06:35:19.158Z,21.80
2018-09-20T06:37:50.198Z,22.60
2018-09-20T06:40:22.741Z,23.30
2018-09-20T06:42:54.253Z,24.10
2018-09-20T06:45:24.776Z,24.90
2018-09-20T06:47:55.846Z,25.50
2018-09-20T06:50:27.300Z,25.90
2018-09-20T06:52:59.166Z,26.30
2018-09-20T06:55:30.419Z,26.70
2018-09-20T06:58:01.068Z,27.30
2018-09-20T07:00:32.522Z,27.70
2018-09-20T07:03:03.844Z,28.30
2018-09-20T07:05:34.379Z,28.80
2018-09-20T07:08:04.834Z,29.30
2018-09-20T07:10:35.902Z,29.70
2018-09-20T07:13:06.150Z,30.10
2018-09-20T07:15:36.397Z,30.60
2018-09-20T07:18:08.044Z,31.00
2018-09-20T07:20:39.381Z,31.70
2018-09-20T07:23:10.527Z,32.00
2018-09-20T07:25:41.812Z,31.90
2018-09-20T07:28:12.164Z,32.10
2018-09-20T07:30:46.302Z,32.90
2018-09-20T07:33:16.817Z,33.20
2018-09-20T07:35:47.674Z,33.90
2018-09-20T07:38:18.681Z,34.10
2018-09-20T07:40:49.689Z,34.10
2018-09-20T07:43:21.202Z,34.00
2018-09-20T07:45:51.635Z,34.10
2018-09-20T07:48:23.749Z,34.40
2018-09-20T07:50:54.549Z,35.00
2018-09-20T07:53:25.461Z,36.00
2018-09-20T07:55:55.930Z,36.80
2018-09-20T07:58:26.804Z,37.40
2018-09-20T08:00:57.484Z,37.90
2018-09-20T08:03:27.535Z,37.90
2018-09-20T08:05:59.074Z,38.00
2018-09-20T08:08:29.724Z,38.00
2018-09-20T08:11:01.237Z,38.40
2018-09-20T08:13:32.473Z,38.80
2018-09-20T08:16:03.663Z,39.10
2018-09-20T08:18:35.245Z,39.50
2018-09-20T08:21:06.428Z,39.50
2018-09-20T08:23:37.802Z,39.00
2018-09-20T08:26:08.941Z,39.30
2018-09-20T08:28:39.545Z,39.10
2018-09-20T08:31:10.651Z,39.50
2018-09-20T08:33:41.109Z,39.20
2018-09-20T08:36:11.355Z,39.30
2018-09-20T08:38:42.649Z,39.60
2018-09-20T08:41:12.754Z,40.20
2018-09-20T08:43:43.679Z,40.60
2018-09-20T08:46:14.745Z,40.50
2018-09-20T08:48:45.046Z,40.80
2018-09-20T08:51:16.273Z,40.80
2018-09-20T08:53:47.386Z,40.20
2018-09-20T08:56:18.295Z,40.50
2018-09-20T08:58:48.591Z,40.10
2018-09-20T09:01:19.172Z,40.80
2018-09-20T09:04:39.181Z,40.80
2018-09-20T09:07:10.619Z,40.80
2018-09-20T09:09:40.992Z,40.90
2018-09-20T09:12:11.997Z,41.30
2018-09-20T09:14:41.967Z,42.00
2018-09-20T09:17:12.313Z,42.00
2018-09-20T09:19:43.515Z,42.50
2018-09-20T09:22:13.924Z,43.10
2018-09-20T09:24:44.916Z,42.80
2018-09-20T09:27:15.715Z,43.60
2018-09-20T09:29:46.863Z,44.10
2018-09-20T09:32:17.272Z,44.30
2018-09-20T09:34:47.738Z,44.50
2018-09-20T09:37:19.462Z,45.10
2018-09-20T09:39:49.870Z,44.70
2018-09-20T09:42:22.715Z,44.80
2018-09-20T09:44:53.580Z,44.50
2018-09-20T09:47:23.916Z,45.20
2018-09-20T09:49:55.012Z,45.90
2018-09-20T09:52:26.117Z,46.80
2018-09-20T09:54:57.046Z,47.60
2018-09-20T09:57:27.519Z,47.90
2018-09-20T09:59:58.227Z,48.80
2018-09-20T10:02:28.581Z,48.60
2018-09-20T10:04:58.999Z,48.40
2018-09-20T10:07:29.597Z,48.00
2018-09-20T10:10:01.436Z,47.90
2018-09-20T10:12:32.423Z,47.70
2018-09-20T10:15:03.114Z,47.50
2018-09-20T10:17:33.317Z,47.50
2018-09-20T10:20:04.304Z,47.70
2018-09-20T10:22:35.559Z,47.80
2018-09-20T10:25:06.453Z,48.00
2018-09-20T10:27:37.578Z,49.00
2018-09-20T10:30:08.917Z,49.80
2018-09-20T10:32:39.479Z,50.40
2018-09-20T10:35:10.558Z,49.40
2018-09-20T10:37:41.836Z,48.70
2018-09-20T10:40:12.077Z,48.30
2018-09-20T10:42:42.113Z,48.90
2018-09-20T10:45:12.477Z,49.00
2018-09-20T10:47:43.085Z,49.40
2018-09-20T10:50:14.109Z,49.80
2018-09-20T10:52:45.075Z,50.10
2018-09-20T10:55:15.588Z,50.20
2018-09-20T10:57:46.669Z,50.30
2018-09-20T11:00:17.733Z,49.40
2018-09-20T11:02:48.638Z,47.40
2018-09-20T11:05:19.401Z,46.40
2018-09-20T11:07:50.468Z,45.60
2018-09-20T11:10:21.901Z,44.80
2018-09-20T11:12:52.637Z,45.50
2018-09-20T11:15:23.597Z,46.30
2018-09-20T11:17:55.849Z,46.90
2018-09-20T11:20:27.101Z,47.00
2018-09-20T11:22:58.194Z,47.20
2018-09-20T11:25:29.037Z,47.40
2018-09-20T11:27:59.861Z,48.30
2018-09-20T11:30:30.632Z,48.20
2018-09-20T11:33:01.677Z,47.10
2018-09-20T11:35:32.320Z,47.00
2018-09-20T11:38:03.676Z,46.80
2018-09-20T11:40:34.581Z,47.30
2018-09-20T11:43:05.099Z,47.70
2018-09-20T11:45:36.077Z,48.30
2018-09-20T11:48:07.419Z,48.00
2018-09-20T11:50:38.457Z,47.10
2018-09-20T11:53:09.438Z,46.50
2018-09-20T11:55:40.208Z,46.60
2018-09-20T11:58:11.439Z,46.20
2018-09-20T12:00:43.132Z,45.70
2018-09-20T12:03:14.879Z,45.90
2018-09-20T12:05:45.470Z,46.50
2018-09-20T12:08:16.313Z,47.30
2018-09-20T12:10:47.493Z,47.60
2018-09-20T12:13:18.425Z,48.00
2018-09-20T12:15:49.981Z,48.70
2018-09-20T12:18:20.552Z,48.40
2018-09-20T12:20:51.752Z,46.60
2018-09-20T12:23:23.078Z,45.60
2018-09-20T12:25:53.617Z,44.90
2018-09-20T12:28:24.357Z,45.30
2018-09-20T12:30:55.159Z,45.60
2018-09-20T12:33:25.316Z,45.10
2018-09-20T12:35:56.275Z,44.70
2018-09-20T12:38:27.797Z,44.90
2018-09-20T12:40:59.495Z,45.10
2018-09-20T12:43:32.964Z,45.10
2018-09-20T12:46:04.377Z,45.30
2018-09-20T12:48:34.917Z,45.20
2018-09-20T12:51:06.298Z,45.60
2018-09-20T12:53:37.161Z,45.00
2018-09-20T12:56:08.609Z,45.10
2018-09-20T12:58:47.347Z,45.90
2018-09-20T13:01:17.428Z,46.70
2018-09-20T13:03:48.144Z,47.40
2018-09-20T13:06:19.020Z,47.70
2018-09-20T13:08:49.874Z,47.60
2018-09-20T13:11:21.148Z,46.30
2018-09-20T13:13:51.741Z,46.30
2018-09-20T13:16:22.359Z,46.30
2018-09-20T13:18:52.564Z,45.70
2018-09-20T13:21:23.645Z,45.10
2018-09-20T13:23:53.968Z,45.20
2018-09-20T13:26:25.020Z,44.30
2018-09-20T13:28:56.394Z,43.70
2018-09-20T13:31:27.920Z,43.70
2018-09-20T13:33:58.478Z,43.70
2018-09-20T13:36:29.119Z,44.00
2018-09-20T13:39:00.261Z,44.40
2018-09-20T13:41:31.354Z,44.60
2018-09-20T13:44:02.599Z,43.30
2018-09-20T13:46:33.316Z,41.00
2018-09-20T13:49:05.044Z,39.90
2018-09-20T13:51:36.363Z,40.20
2018-09-20T13:54:07.516Z,40.00
2018-09-20T13:56:38.277Z,39.60
2018-09-20T13:59:09.431Z,40.00
2018-09-20T14:01:41.321Z,39.90
2018-09-20T14:04:12.515Z,40.30
2018-09-20T14:06:43.914Z,40.80
2018-09-20T14:09:15.326Z,40.90
2018-09-20T14:11:45.603Z,40.50
2018-09-20T14:14:16.157Z,41.10
2018-09-20T14:16:46.836Z,41.60
2018-09-20T14:19:17.858Z,42.10
2018-09-20T14:21:48.715Z,41.50
2018-09-20T14:24:19.440Z,40.90
2018-09-20T14:26:50.188Z,40.00
2018-09-20T14:29:20.979Z,39.50
2018-09-20T14:31:51.437Z,38.80
2018-09-20T14:34:22.097Z,39.30
2018-09-20T14:36:52.517Z,38.90
2018-09-20T14:39:23.355Z,39.50
2018-09-20T14:41:53.737Z,39.80
2018-09-20T14:44:25.049Z,39.60
2018-09-20T14:46:55.838Z,38.80
2018-09-20T14:49:26.854Z,38.10
2018-09-20T14:51:57.724Z,38.10
2018-09-20T14:54:28.385Z,38.00
2018-09-20T14:56:59.097Z,37.60
2018-09-20T14:59:30.030Z,37.30
2018-09-20T15:02:00.890Z,36.90
2018-09-20T15:04:31.364Z,37.00
2018-09-20T15:07:01.532Z,37.30
2018-09-20T15:09:32.160Z,36.80
2018-09-20T15:12:03.037Z,36.70
2018-09-20T15:14:34.256Z,36.40
2018-09-20T15:17:05.098Z,36.10
2018-09-20T15:19:35.642Z,35.90
2018-09-20T15:22:07.437Z,35.60
2018-09-20T15:24:38.328Z,35.40
2018-09-20T15:27:08.956Z,35.70
2018-09-20T15:29:40.289Z,35.40
2018-09-20T15:32:11.679Z,36.00
2018-09-20T15:34:42.396Z,36.50
2018-09-20T15:37:13.941Z,36.40
2018-09-20T15:39:45.029Z,36.00
2018-09-20T15:42:16.364Z,35.40
2018-09-20T15:44:47.947Z,35.40
2018-09-20T15:47:18.948Z,35.00
2018-09-20T15:49:50.599Z,34.70
2018-09-20T15:52:21.685Z,34.40
2018-09-20T15:54:52.824Z,34.10
2018-09-20T15:57:23.951Z,34.00
2018-09-20T15:59:55.877Z,34.10
2018-09-20T16:02:27.398Z,34.40
2018-09-20T16:04:58.777Z,34.40
2018-09-20T16:07:29.439Z,34.50
2018-09-20T16:10:00.459Z,34.50
2018-09-20T16:12:31.058Z,34.50
2018-09-20T16:15:02.940Z,34.30
2018-09-20T16:17:33.866Z,34.10
2018-09-20T16:20:04.544Z,33.60
2018-09-20T16:22:36.903Z,33.10
2018-09-20T16:25:08.717Z,32.70
2018-09-20T16:27:39.845Z,32.40
2018-09-20T16:30:17.979Z,32.00
2018-09-20T16:33:15.709Z,31.70
2018-09-20T16:35:59.691Z,31.30
2018-09-20T16:38:37.678Z,31.00
2018-09-20T16:41:10.160Z,30.80
2018-09-20T16:43:40.618Z,30.70
2018-09-20T16:46:11.838Z,30.60
2018-09-20T16:48:43.489Z,30.40
2018-09-20T16:51:14.437Z,30.20
2018-09-20T16:53:45.034Z,30.00
2018-09-20T16:56:15.677Z,29.90
2018-09-20T16:58:51.836Z,29.70
2018-09-20T17:01:23.281Z,29.50
2018-09-20T17:03:54.123Z,29.40
2018-09-20T17:06:25.137Z,29.20
2018-09-20T17:08:56.192Z,29.10
2018-09-20T17:11:27.688Z,29.00
2018-09-20T17:13:58.977Z,28.80
2018-09-20T17:16:30.298Z,28.70
2018-09-20T17:19:01.173Z,28.50
2018-09-20T17:21:31.997Z,28.20
2018-09-20T17:24:02.158Z,28.20
2018-09-20T17:26:32.653Z,28.10
2018-09-20T17:29:03.459Z,28.00
2018-09-20T17:31:33.962Z,27.90
2018-09-20T17:34:04.516Z,27.70
2018-09-20T17:36:36.277Z,27.70
2018-09-20T17:39:12.073Z,27.50
2018-09-20T17:41:44.997Z,27.50
2018-09-20T17:44:15.639Z,27.30
2018-09-20T17:46:46.182Z,27.30
2018-09-20T17:49:16.481Z,27.30
2018-09-20T17:51:48.036Z,27.30
2018-09-20T17:54:19.743Z,27.30
2018-09-20T17:56:51.549Z,27.40
2018-09-20T17:59:22.440Z,27.30
2018-09-20T18:01:52.841Z,27.20
2018-09-20T18:04:23.837Z,27.00
2018-09-20T18:06:54.161Z,27.20
2018-09-20T18:09:25.241Z,27.00
2018-09-20T18:11:56.039Z,26.90
2018-09-20T18:14:26.878Z,26.60
2018-09-20T18:16:57.332Z,26.40
2018-09-20T18:19:27.963Z,26.30
2018-09-20T18:21:58.738Z,26.30
2018-09-20T18:24:29.238Z,26.20
2018-09-20T18:26:59.998Z,26.00
2018-09-20T18:29:31.083Z,25.90
2018-09-20T18:32:01.636Z,25.70
2018-09-20T18:34:32.154Z,25.60
2018-09-20T18:37:02.710Z,25.50
2018-09-20T18:39:33.322Z,25.40
2018-09-20T18:42:04.762Z,25.40
2018-09-20T18:44:35.525Z,25.30
2018-09-20T18:47:06.368Z,25.20
2018-09-20T18:49:38.078Z,25.20
2018-09-20T18:52:08.798Z,25.20
2018-09-20T18:54:39.318Z,25.10
2018-09-20T18:57:10.760Z,25.00
2018-09-20T18:59:41.879Z,24.90
2018-09-20T19:02:13.037Z,24.90
2018-09-20T19:04:44.295Z,24.80
2018-09-20T19:07:15.130Z,24.90
2018-09-20T19:09:46.345Z,24.80
2018-09-20T19:12:17.055Z,24.80
2018-09-20T19:14:48.677Z,24.80
2018-09-20T19:17:19.709Z,24.80
2018-09-20T19:19:50.161Z,24.90
2018-09-20T19:22:20.956Z,24.80
2018-09-20T19:24:52.117Z,24.70
2018-09-20T19:27:22.585Z,24.60
2018-09-20T19:29:53.721Z,24.50
2018-09-20T19:32:24.081Z,24.40
2018-09-20T19:34:54.484Z,24.30
2018-09-20T19:37:24.919Z,24.20
2018-09-20T19:39:55.881Z,24.30
2018-09-20T19:42:26.077Z,24.20
2018-09-20T19:44:57.483Z,24.10
2018-09-20T19:47:29.522Z,24.10
2018-09-20T19:50:00.161Z,24.00
2018-09-20T19:52:31.065Z,23.90
2018-09-20T19:55:02.249Z,23.80
2018-09-20T19:57:33.276Z,23.80
2018-09-20T20:00:04.543Z,23.70
2018-09-20T20:02:35.637Z,23.70
2018-09-20T20:05:06.629Z,23.60
2018-09-20T20:07:37.258Z,23.50
2018-09-20T20:10:08.678Z,23.40
2018-09-20T20:12:39.492Z,23.40
2018-09-20T20:15:10.236Z,23.40
2018-09-20T20:17:41.216Z,23.40
2018-09-20T20:20:11.815Z,23.50
2018-09-20T20:22:42.635Z,23.40
2018-09-20T20:25:13.788Z,23.20
2018-09-20T20:27:44.712Z,23.10
2018-09-20T20:30:15.835Z,23.10
2018-09-20T20:32:46.746Z,23.10
2018-09-20T20:35:17.157Z,23.00
2018-09-20T20:37:47.524Z,23.00
2018-09-20T20:40:18.430Z,23.00
2018-09-20T20:42:49.489Z,22.90
2018-09-20T20:45:20.334Z,22.80
2018-09-20T20:47:50.593Z,22.80
2018-09-20T20:50:22.378Z,22.90
2018-09-20T20:52:53.053Z,22.80
2018-09-20T20:55:24.177Z,22.80
2018-09-20T20:57:55.275Z,22.80
2018-09-20T21:00:25.718Z,22.90
2018-09-20T21:02:56.996Z,22.90
2018-09-20T21:05:27.996Z,22.90
2018-09-20T21:07:59.515Z,22.80
2018-09-20T21:10:30.035Z,22.90
2018-09-20T21:13:10.396Z,22.80
2018-09-20T21:15:43.439Z,22.70
2018-09-20T21:18:14.599Z,22.60
2018-09-20T21:20:45.841Z,22.50
2018-09-20T21:23:16.956Z,22.50
2018-09-20T21:25:48.160Z,22.50
2018-09-20T21:28:19.277Z,22.50
2018-09-20T21:30:50.279Z,22.40
2018-09-20T21:33:21.923Z,22.50
2018-09-20T21:35:52.509Z,22.40
2018-09-20T21:38:23.041Z,22.20
2018-09-20T21:40:56.657Z,22.00
2018-09-20T21:43:27.236Z,22.00
2018-09-20T21:45:57.479Z,22.10
2018-09-20T21:48:28.717Z,22.00
2018-09-20T21:50:59.711Z,22.00
2018-09-20T21:53:30.012Z,21.90
2018-09-20T21:56:00.724Z,21.90
2018-09-20T21:58:33.400Z,21.80
2018-09-20T22:01:04.881Z,21.70
2018-09-20T22:03:35.735Z,21.70
2018-09-20T22:06:06.293Z,21.60
2018-09-20T22:08:37.034Z,21.60
2018-09-20T22:11:08.161Z,21.50
2018-09-20T22:13:38.484Z,21.50
2018-09-20T22:16:09.297Z,21.50
2018-09-20T22:18:39.514Z,21.50
2018-09-20T22:21:10.636Z,21.60
2018-09-20T22:23:40.903Z,21.60
2018-09-20T22:26:11.665Z,21.50
2018-09-20T22:28:43.043Z,21.30
2018-09-20T22:31:13.239Z,21.40
2018-09-20T22:33:43.676Z,21.40
2018-09-20T22:36:13.900Z,21.30
2018-09-20T22:38:44.189Z,21.20
2018-09-20T22:41:15.332Z,21.20
2018-09-20T22:43:49.608Z,21.10
2018-09-20T22:46:20.708Z,21.10
2018-09-20T22:48:51.607Z,21.00
2018-09-20T22:51:23.621Z,20.90
2018-09-20T22:53:54.675Z,20.70
2018-09-20T22:56:26.015Z,20.70
2018-09-20T22:58:57.089Z,20.70
2018-09-20T23:01:30.403Z,20.70
2018-09-20T23:04:00.573Z,20.50
2018-09-20T23:06:31.694Z,20.70
2018-09-20T23:09:03.033Z,20.70
2018-09-20T23:11:34.525Z,20.70
2018-09-20T23:14:05.607Z,20.60
2018-09-20T23:16:39.874Z,20.50
2018-09-20T23:19:10.354Z,20.60
2018-09-20T23:21:41.194Z,20.60
2018-09-20T23:24:12.053Z,20.60
2018-09-20T23:26:42.651Z,20.70
2018-09-20T23:29:13.497Z,20.70
2018-09-20T23:31:44.533Z,20.50
2018-09-20T23:34:15.304Z,20.40
2018-09-20T23:36:47.063Z,20.40
2018-09-20T23:39:18.568Z,20.40
2018-09-20T23:41:49.427Z,20.30
2018-09-20T23:44:20.457Z,20.30
2018-09-20T23:46:50.864Z,20.10
2018-09-20T23:49:22.221Z,20.10
2018-09-20T23:51:53.270Z,20.20
2018-09-20T23:54:25.786Z,20.10
2018-09-20T23:56:57.148Z,20.00
2018-09-20T23:59:28.343Z,19.90
